createdAt,value
2017-11-25T00:03:04.871Z,18.80
2017-11-25T00:06:28.363Z,18.80
2017-11-25T00:09:51.832Z,18.80
2017-11-25T00:13:16.053Z,18.70
2017-11-25T00:16:39.533Z,18.70
2017-11-25T00:20:02.971Z,18.70
2017-11-25T00:23:27.216Z,18.60
2017-11-25T00:26:50.721Z,18.60
2017-11-25T00:30:14.171Z,18.60
2017-11-25T00:33:37.640Z,18.50
2017-11-25T00:37:01.114Z,18.50
2017-11-25T00:40:24.644Z,18.50
2017-11-25T00:43:48.122Z,18.50
2017-11-25T00:47:11.580Z,18.50
2017-11-25T00:50:35.057Z,18.50
2017-11-25T00:53:58.534Z,18.40
2017-11-25T00:57:21.982Z,18.40
2017-11-25T01:00:45.524Z,18.40
2017-11-25T01:04:08.967Z,18.40
2017-11-25T01:07:32.518Z,18.40
2017-11-25T01:10:56.012Z,18.40
2017-11-25T01:14:19.462Z,18.30
2017-11-25T01:17:42.996Z,18.30
2017-11-25T01:21:06.477Z,18.30
2017-11-25T01:24:30.707Z,18.30
2017-11-25T01:27:54.193Z,18.20
2017-11-25T01:31:17.644Z,18.20
2017-11-25T01:34:41.168Z,18.20
2017-11-25T01:38:04.633Z,18.20
2017-11-25T01:41:28.092Z,18.20
2017-11-25T01:44:51.568Z,18.20
2017-11-25T01:48:15.032Z,18.20
2017-11-25T01:51:38.524Z,18.10
2017-11-25T01:55:02.076Z,18.10
2017-11-25T01:58:25.525Z,18.00
2017-11-25T02:01:48.992Z,18.00
2017-11-25T02:05:12.469Z,18.00
2017-11-25T02:08:35.927Z,17.90
2017-11-25T02:11:59.579Z,17.90
2017-11-25T02:15:23.048Z,17.90
2017-11-25T02:18:47.282Z,17.80
2017-11-25T02:22:10.724Z,17.80
2017-11-25T02:25:34.196Z,17.70
2017-11-25T02:28:57.663Z,17.70
2017-11-25T02:32:21.113Z,17.70
2017-11-25T02:35:44.589Z,17.70
2017-11-25T02:39:08.968Z,17.70
2017-11-25T02:42:32.482Z,17.60
2017-11-25T02:45:56.000Z,17.60
2017-11-25T02:49:19.573Z,17.60
2017-11-25T02:52:43.045Z,17.70
2017-11-25T02:56:06.516Z,17.60
2017-11-25T02:59:29.993Z,17.60
2017-11-25T03:02:53.458Z,17.60
2017-11-25T03:06:17.732Z,17.50
2017-11-25T03:09:41.201Z,17.60
2017-11-25T03:13:04.672Z,17.60
2017-11-25T03:16:28.104Z,17.50
2017-11-25T03:19:52.500Z,17.50
2017-11-25T03:23:16.720Z,17.50
2017-11-25T03:26:40.189Z,17.50
2017-11-25T03:30:03.690Z,17.50
2017-11-25T03:33:27.128Z,17.50
2017-11-25T03:36:50.581Z,17.50
2017-11-25T03:40:14.107Z,17.50
2017-11-25T03:43:37.587Z,17.40
2017-11-25T03:47:02.548Z,17.40
2017-11-25T03:50:26.011Z,17.40
2017-11-25T03:53:49.484Z,17.40
2017-11-25T03:57:12.954Z,17.40
2017-11-25T04:00:36.478Z,17.40
2017-11-25T04:03:59.974Z,17.30
2017-11-25T04:07:24.260Z,17.30
2017-11-25T04:10:48.499Z,17.30
2017-11-25T04:14:11.964Z,17.30
2017-11-25T04:17:35.423Z,17.30
2017-11-25T04:20:58.898Z,17.40
2017-11-25T04:24:22.344Z,17.30
2017-11-25T04:27:46.576Z,17.30
2017-11-25T04:31:10.044Z,17.30
2017-11-25T04:34:33.547Z,17.30
2017-11-25T04:37:57.008Z,17.30
2017-11-25T04:41:20.492Z,17.20
2017-11-25T04:44:44.010Z,17.30
2017-11-25T04:48:08.208Z,17.20
2017-11-25T04:51:31.668Z,17.20
2017-11-25T04:54:55.131Z,17.20
2017-11-25T04:58:18.647Z,17.30
2017-11-25T05:01:42.099Z,17.30
2017-11-25T05:05:05.538Z,17.50
2017-11-25T05:08:29.786Z,18.40
2017-11-25T05:11:53.239Z,18.40
2017-11-25T05:15:16.895Z,19.00
2017-11-25T05:18:41.184Z,20.10
2017-11-25T05:22:04.705Z,20.10
2017-11-25T05:25:28.171Z,20.70
2017-11-25T05:28:51.654Z,21.20
2017-11-25T05:32:15.115Z,21.70
2017-11-25T05:35:38.576Z,22.20
2017-11-25T05:39:02.056Z,22.50
2017-11-25T05:42:25.534Z,22.70
2017-11-25T05:45:48.991Z,23.00
2017-11-25T05:49:12.505Z,23.30
2017-11-25T05:52:35.962Z,23.30
2017-11-25T05:55:59.415Z,23.50
2017-11-25T05:59:22.904Z,23.60
2017-11-25T06:02:46.363Z,23.60
2017-11-25T06:06:09.831Z,23.80
2017-11-25T06:09:33.404Z,23.80
2017-11-25T06:12:56.987Z,23.80
2017-11-25T06:16:20.461Z,23.90
2017-11-25T06:19:45.442Z,23.90
2017-11-25T06:23:08.915Z,23.90
2017-11-25T06:26:32.388Z,24.10
2017-11-25T06:29:55.839Z,24.10
2017-11-25T06:33:19.375Z,24.00
2017-11-25T06:36:43.623Z,24.10
2017-11-25T06:40:07.104Z,24.00
2017-11-25T06:43:30.562Z,24.00
2017-11-25T06:46:54.032Z,24.20
2017-11-25T06:50:17.576Z,24.00
2017-11-25T06:53:41.039Z,23.90
2017-11-25T06:57:05.296Z,24.00
2017-11-25T07:00:28.723Z,24.00
2017-11-25T07:03:52.184Z,23.90
2017-11-25T07:07:16.528Z,23.90
2017-11-25T07:10:39.982Z,23.90
2017-11-25T07:14:03.619Z,23.90
2017-11-25T07:17:27.848Z,24.00
2017-11-25T07:20:51.295Z,24.00
2017-11-25T07:24:14.762Z,24.00
2017-11-25T07:27:38.540Z,24.10
2017-11-25T07:31:02.010Z,24.30
2017-11-25T07:34:25.521Z,24.30
2017-11-25T07:37:48.988Z,24.30
2017-11-25T07:41:12.464Z,24.50
2017-11-25T07:44:35.996Z,24.50
2017-11-25T07:47:59.468Z,24.30
2017-11-25T07:51:23.760Z,24.60
2017-11-25T07:54:47.239Z,24.60
2017-11-25T07:58:10.760Z,24.50
2017-11-25T08:01:35.734Z,24.40
2017-11-25T08:04:59.211Z,24.40
2017-11-25T08:08:22.711Z,24.50
2017-11-25T08:11:46.250Z,24.50
2017-11-25T08:15:09.727Z,24.30
2017-11-25T08:18:33.200Z,24.30
2017-11-25T08:21:56.662Z,24.30
2017-11-25T08:25:20.128Z,24.20
2017-11-25T08:28:43.611Z,24.10
2017-11-25T08:32:07.118Z,24.20
2017-11-25T08:35:30.613Z,24.20
2017-11-25T08:38:54.939Z,24.00
2017-11-25T08:42:18.415Z,23.90
2017-11-25T08:45:41.976Z,24.00
2017-11-25T08:49:06.169Z,23.90
2017-11-25T08:52:29.943Z,23.90
2017-11-25T08:55:54.147Z,23.90
2017-11-25T08:59:17.795Z,23.90
2017-11-25T09:02:42.042Z,23.90
2017-11-25T09:06:05.517Z,23.80
2017-11-25T09:09:29.063Z,23.70
2017-11-25T09:12:52.584Z,23.80
2017-11-25T09:16:16.047Z,23.90
2017-11-25T09:19:39.544Z,23.80
